Latest Weather Observations for Sunshine Coast Airport

IDQ60801

Issued at 11:12 pm EST Saturday 22 September 2018 (issued every 10 minutes, with the page automatically refreshed every 10 minutes)

About weather observations | Map of weather stations | Latest weather observations for QLD | Other Formats
Station Details ID: 040861 Name: SUNSHINE COAST AIRPORT Lat: -26.60 Lon: 153.09 Height: 3.3 m
Data from the previous 72 hours. | See also: Recent months at Sunshine Coast Airport
Date/Time
EST
Temp
°C
App
Temp
°C
Dew
Point
°C
Rel
Hum
%
Delta-T
°C
Wind Press
QNH
hPa
Press
MSL
hPa
Rain since
9am
mm
Dir  Spd
km/h
Gust
km/h
Spd
kts
Gust
kts
22/11:00pm 11.9 11.0 10.5 91 0.7 SW 6 7 3 4 1025.3 1025.3 0.0
22/10:30pm 12.8 12.9 11.4 91 0.7 SW 2 6 1 3 1025.4 1025.4 0.0
22/10:00pm 13.2 12.4 11.1 87 1.1 SW 6 7 3 4 1025.5 1025.5 0.0
22/09:30pm 14.1 12.9 11.6 85 1.3 WSW 9 11 5 6 1025.5 1025.5 0.0
22/09:00pm 15.5 14.4 10.5 72 2.6 WSW 7 11 4 6 1025.5 1025.5 0.0
22/08:30pm 19.3 17.2 11.1 59 4.5 E 13 17 7 9 1025.5 1025.5 0.0
22/08:00pm 19.0 17.5 11.8 63 4.0 E 11 17 6 9 1025.4 1025.4 0.0
22/07:30pm 19.2 17.6 11.7 62 4.1 ESE 11 17 6 9 1025.3 1025.3 0.0
22/07:00pm 19.4 17.5 11.7 61 4.2 ESE 13 17 7 9 1025.0 1025.0 0.0
22/06:30pm 19.3 17.4 11.8 62 4.1 ESE 13 19 7 10 1024.8 1024.8 0.0
22/06:00pm 19.6 17.6 11.6 60 4.4 ESE 13 19 7 10 1024.5 1024.5 0.0
22/05:30pm 20.0 17.9 12.3 61 4.3 ESE 15 20 8 11 1024.4 1024.4 0.0
22/05:00pm 20.7 18.3 11.3 55 5.2 ESE 15 22 8 12 1024.2 1024.2 0.0
22/04:30pm 21.0 17.5 10.2 50 5.8 ESE 19 26 10 14 1024.0 1024.0 0.0
22/04:00pm 21.5 17.9 10.6 50 5.9 ESE 20 26 11 14 1023.8 1023.8 0.0
22/03:30pm 22.0 18.6 11.4 51 5.9 ESE 20 28 11 15 1023.8 1023.8 0.0
22/03:00pm 21.9 18.2 11.6 52 5.7 ESE 22 28 12 15 1023.8 1023.8 0.0
22/02:30pm 23.0 19.9 12.3 51 6.1 ESE 20 30 11 16 1024.1 1024.1 0.0
22/02:00pm 22.6 19.1 11.0 48 6.4 SE 20 28 11 15 1024.4 1024.4 0.0
22/01:30pm 22.3 18.7 12.0 52 5.8 SE 22 30 12 16 1024.7 1024.7 0.0
22/01:00pm 22.5 19.5 12.7 54 5.6 SE 20 26 11 14 1025.1 1025.1 0.0
22/12:30pm 21.9 18.7 13.0 57 5.1 SE 22 28 12 15 1025.4 1025.4 0.0
22/12:00pm 22.2 18.9 12.7 55 5.4 SE 22 30 12 16 1025.9 1025.9 0.0
22/11:30am 22.1 18.1 11.8 52 5.8 SE 24 32 13 17 1026.3 1026.3 0.0
22/11:00am 23.1 19.5 13.0 53 5.8 SSE 24 33 13 18 1026.8 1026.8 0.0
22/10:30am 21.9 17.6 12.2 54 5.5 SSE 26 32 14 17 1027.1 1027.1 0.0
22/10:00am 21.5 17.8 12.6 57 5.0 SSE 24 32 13 17 1027.2 1027.2 0.0
22/09:30am 20.7 17.0 12.7 60 4.5 SSE 24 30 13 16 1027.3 1027.3 0.0
22/09:00am 20.3 17.4 12.8 62 4.2 SSE 20 28 11 15 1027.3 1027.3 0.0
22/08:30am 19.7 16.1 12.0 61 4.3 S 22 28 12 15 1027.4 1027.4 0.0
22/08:00am 18.8 14.7 11.4 62 4.0 S 24 33 13 18 1027.4 1027.4 0.0
22/07:30am 17.3 13.4 10.7 65 3.5 S 22 30 12 16 1027.3 1027.3 0.0
22/07:00am 16.8 12.4 10.4 66 3.4 S 24 32 13 17 1027.0 1027.0 0.0
22/06:30am 16.3 13.0 10.8 70 2.9 S 19 24 10 13 1026.6 1026.6 0.0
22/06:00am 15.6 12.0 10.4 71 2.7 SSW 20 28 11 15 1026.1 1026.1 0.0
22/05:30am 15.3 12.2 10.3 72 2.6 SSW 17 22 9 12 1025.9 1025.9 0.0
22/05:00am 14.7 12.7 10.3 75 2.3 SSW 11 17 6 9 1025.8 1025.8 0.0
22/04:30am 15.0 12.7 10.6 75 2.3 SSW 13 19 7 10 1025.6 1025.6 0.0
22/04:00am 13.6 12.1 10.4 81 1.7 SW 9 13 5 7 1025.4 1025.4 0.0
22/03:30am 14.3 12.5 10.9 80 1.8 SW 11 13 6 7 1025.3 1025.3 0.0
22/03:00am 15.0 12.9 11.2 78 2.0 SW 13 15 7 8 1025.3 1025.3 0.0
22/02:30am 15.7 13.0 10.5 71 2.7 SW 15 20 8 11 1025.4 1025.4 0.0
22/02:00am 17.5 13.9 9.7 60 4.1 SSE 19 35 10 19 1025.7 1025.7 0.0
22/01:30am 19.0 13.7 9.8 55 4.9 SE 28 37 15 20 1025.7 1025.7 0.0
22/01:00am 19.1 14.1 9.6 54 5.0 SE 26 35 14 19 1026.1 1026.1 0.0
22/12:30am 19.2 14.2 9.7 54 5.0 SE 26 35 14 19 1026.3 1026.3 0.0
22/12:00am 19.2 14.4 10.2 56 4.8 SE 26 39 14 21 1026.4 1026.4 0.0
 
Date/Time
EST
Temp
°C
App
Temp
°C
Dew
Point
°C
Rel
Hum
%
Delta-T
°C
Wind Press
QNH
hPa
Press
MSL
hPa
Rain since
9am
mm
Dir  Spd
km/h
Gust
km/h
Spd
kts
Gust
kts
21/11:30pm 19.4 14.3 10.7 57 4.7 SE 28 39 15 21 1026.4 1026.4 0.0
21/11:00pm 19.3 15.0 10.6 57 4.7 SE 24 35 13 19 1026.6 1026.6 0.0
21/10:30pm 19.4 14.5 11.2 59 4.5 SE 28 37 15 20 1026.6 1026.6 0.0
21/10:00pm 19.6 14.6 10.9 57 4.7 SE 28 35 15 19 1026.6 1026.6 0.0
21/09:30pm 19.6 15.1 11.4 59 4.5 SE 26 33 14 18 1026.5 1026.5 0.0
21/09:00pm 19.5 15.3 11.0 58 4.6 SE 24 33 13 18 1026.5 1026.5 0.0
21/08:30pm 19.6 15.4 11.1 58 4.6 SE 24 33 13 18 1026.5 1026.5 0.0
21/08:00pm 19.6 15.5 11.4 59 4.5 SE 24 33 13 18 1026.1 1026.1 0.0
21/07:30pm 19.7 14.7 10.9 57 4.8 SE 28 35 15 19 1025.8 1025.8 0.0
21/07:00pm 19.6 14.4 10.3 55 5.0 SE 28 33 15 18 1025.4 1025.4 0.0
21/06:30pm 19.5 15.0 10.0 54 5.1 SE 24 33 13 18 1025.0 1025.0 0.0
21/06:00pm 19.6 15.3 10.6 56 4.8 SE 24 32 13 17 1024.6 1024.6 0.0
21/05:30pm 19.6 15.3 10.6 56 4.9 SE 24 33 13 18 1024.4 1024.4 0.0
21/05:00pm 20.1 16.0 11.3 57 4.8 SE 24 35 13 19 1024.1 1024.1 0.0
21/04:30pm 20.5 15.9 10.9 54 5.3 SE 26 35 14 19 1023.7 1023.7 0.0
21/04:00pm 20.8 15.8 10.9 53 5.4 SE 28 37 15 20 1023.5 1023.5 0.0
21/03:30pm 21.1 16.1 12.3 57 5.0 SE 30 41 16 22 1023.4 1023.4 0.0
21/03:00pm 21.5 17.0 12.6 57 5.0 SE 28 37 15 20 1023.5 1023.5 0.0
21/02:30pm 21.6 16.7 11.3 52 5.7 SE 28 37 15 20 1023.4 1023.4 0.0
21/02:00pm 21.0 15.4 11.6 55 5.2 SSE 32 39 17 21 1023.6 1023.6 0.0
21/01:30pm 21.5 16.2 11.2 52 5.7 SE 30 39 16 21 1023.7 1023.7 0.0
21/01:00pm 20.9 15.8 10.7 52 5.5 SSE 28 35 15 19 1023.9 1023.9 0.0
21/12:30pm 21.8 16.0 10.9 50 6.0 SSE 32 41 17 22 1024.1 1024.1 0.0
21/12:00pm 21.4 16.0 10.9 51 5.7 SSE 30 43 16 23 1024.3 1024.3 0.0
21/11:30am 20.6 14.9 11.0 54 5.3 SSE 32 44 17 24 1024.7 1024.7 0.0
21/11:00am 21.4 15.5 11.1 52 5.7 SSE 33 48 18 26 1024.9 1024.9 0.0
21/10:30am 20.8 15.0 10.9 53 5.4 S 32 43 17 23 1025.0 1025.0 0.0
21/10:00am 20.3 14.5 10.7 54 5.2 SSE 32 43 17 23 1025.0 1025.0 0.0
21/09:30am 20.2 14.5 11.1 56 5.0 S 32 43 17 23 1024.7 1024.7 0.0
21/09:00am 19.4 13.6 10.9 58 4.6 S 32 39 17 21 1024.8 1024.8 0.0
21/08:30am 18.5 12.6 10.6 60 4.2 S 32 41 17 22 1024.5 1024.5 0.0
21/08:00am 17.9 12.7 10.3 61 4.0 S 28 44 15 24 1024.1 1024.1 0.0
21/07:30am 17.1 12.8 9.5 61 4.0 SSW 22 32 12 17 1023.7 1023.7 0.0
21/07:00am 15.9 11.2 9.3 65 3.4 SSW 24 32 13 17 1023.5 1023.5 0.0
21/06:30am 15.0 10.7 9.4 69 2.9 SSW 22 32 12 17 1023.1 1023.1 0.0
21/06:00am 14.6 10.7 9.6 72 2.6 SSW 20 26 11 14 1022.5 1022.5 0.0
21/05:30am 14.6 10.0 9.8 73 2.5 SSW 24 33 13 18 1022.2 1022.2 0.0
21/05:00am 14.7 11.0 10.3 75 2.3 SSW 20 28 11 15 1021.5 1021.5 0.0
21/04:30am 15.0 11.6 10.6 75 2.3 SSW 19 28 10 15 1021.1 1021.1 0.0
21/04:00am 15.4 11.0 10.4 72 2.6 S 24 33 13 18 1020.9 1020.9 0.0
21/03:30am 15.9 10.7 10.4 70 2.9 S 28 37 15 20 1020.7 1020.7 0.0
21/03:00am 16.1 10.6 10.6 70 2.9 S 30 44 16 24 1020.4 1020.4 0.0
21/02:30am 16.4 11.5 11.3 72 2.7 S 28 37 15 20 1020.3 1020.3 0.0
21/02:00am 16.5 11.6 11.4 72 2.7 S 28 37 15 20 1020.2 1020.2 0.0
21/01:30am 15.8 11.4 7.6 58 4.1 S 20 28 11 15 1020.2 1020.2 0.0
21/01:00am 15.8 10.0 0.0 34 6.7 S 20 24 11 13 1020.3 1020.3 0.0
21/12:30am 16.3 10.9 -1.3 30 7.3 S 17 24 9 13 1020.2 1020.2 0.0
21/12:00am 17.2 11.3 -1.9 27 7.9 SW 19 26 10 14 1019.7 1019.7 0.0
 
Date/Time
EST
Temp
°C
App
Temp
°C
Dew
Point
°C
Rel
Hum
%
Delta-T
°C
Wind Press
QNH
hPa
Press
MSL
hPa
Rain since
9am
mm
Dir  Spd
km/h
Gust
km/h
Spd
kts
Gust
kts
20/11:30pm 17.1 11.4 -1.1 29 7.7 SW 19 24 10 13 1019.5 1019.5 0.0
20/11:00pm 16.5 11.5 1.4 36 6.6 SW 17 20 9 11 1019.4 1019.4 0.0
20/10:30pm 17.5 12.3 3.8 40 6.4 SW 20 28 11 15 1019.3 1019.3 0.0
20/10:00pm 18.5 15.3 11.3 63 3.9 SW 19 28 10 15 1019.1 1019.1 0.0
20/09:30pm 18.8 17.4 15.5 81 1.9 SSW 17 24 9 13 1018.7 1018.7 0.0
20/09:00pm 19.0 18.4 16.6 86 1.4 SSW 15 22 8 12 1018.6 1018.6 0.0
20/08:30pm 18.7 18.7 16.3 86 1.4 SW 11 15 6 8 1018.1 1018.1 0.0
20/08:00pm 19.1 19.3 16.7 86 1.4 SSW 11 13 6 7 1017.6 1017.6 0.0
20/07:30pm 19.5 19.7 16.7 84 1.7 S 11 15 6 8 1017.0 1017.0 0.0
20/07:00pm 20.1 20.1 17.1 83 1.8 SSE 13 15 7 8 1016.4 1016.4 0.0
20/06:30pm 20.6 20.7 17.4 82 2.0 SSE 13 17 7 9 1015.6 1015.6 0.0
20/06:00pm 20.9 21.1 17.7 82 2.0 SSE 13 19 7 10 1015.0 1015.0 0.0
20/05:47pm 21.0 21.3 17.8 82 2.0 SE 13 19 7 10 1014.6 1014.6 0.0
20/05:30pm 21.1 20.9 17.7 81 2.1 SE 15 20 8 11 1014.2 1014.2 0.0
20/05:06pm 21.5 21.0 17.9 80 2.2 SE 17 24 9 13 1013.8 1013.8 0.0
20/05:00pm 21.6 20.8 18.0 80 2.2 SE 19 22 10 12 1013.7 1013.7 0.0
20/04:30pm 21.7 20.7 17.9 79 2.4 SE 20 28 11 15 1013.2 1013.2 0.0
20/04:00pm 22.0 20.3 16.3 70 3.4 SE 20 28 11 15 1012.8 1012.8 0.0
20/03:30pm 22.7 20.7 15.5 64 4.3 SE 20 28 11 15 1012.5 1012.5 0.0
20/03:00pm 23.1 20.8 16.6 67 4.0 SE 24 32 13 17 1012.2 1012.2 0.0
20/02:30pm 23.8 21.1 16.6 64 4.4 SE 26 33 14 18 1012.1 1012.1 0.0
20/02:00pm 25.2 23.6 16.4 58 5.4 SE 20 28 11 15 1012.0 1012.0 0.0
20/01:30pm 25.6 23.9 16.2 56 5.8 ESE 20 28 11 15 1012.2 1012.2 0.0
20/01:00pm 25.8 24.7 17.7 61 5.1 E 20 24 11 13 1011.9 1011.9 0.0
20/12:30pm 26.2 24.2 15.6 52 6.4 NE 20 24 11 13 1011.9 1011.9 0.0
20/12:00pm 25.6 24.1 16.7 58 5.5 ENE 20 26 11 14 1012.3 1012.3 0.0
20/11:30am 26.1 25.2 16.9 57 5.7 E 17 24 9 13 1012.7 1012.7 0.0
20/11:00am 28.7 26.9 10.8 33 10.2 W 11 17 6 9 1012.9 1012.9 0.0
20/10:30am 27.4 24.9 12.2 39 8.8 WNW 17 30 9 16 1013.3 1013.3 0.0
20/10:00am 26.3 23.9 12.7 43 7.9 NW 17 24 9 13 1013.4 1013.4 0.0
20/09:30am 25.4 22.7 12.9 45 7.3 NW 19 26 10 14 1013.5 1013.5 0.0
20/09:00am 24.3 22.0 14.7 55 5.7 NNW 20 28 11 15 1013.5 1013.5 0.0
20/08:30am 22.9 20.5 13.9 57 5.3 NW 19 24 10 13 1013.9 1013.9 0.0
20/08:00am 21.4 20.1 14.8 66 3.9 NNW 15 24 8 13 1013.9 1013.9 0.0
20/07:30am 19.9 18.3 14.9 73 2.9 NNW 17 22 9 12 1013.9 1013.9 0.0
20/07:00am 18.8 16.8 14.9 78 2.3 NNW 19 24 10 13 1013.8 1013.8 0.0
20/06:30am 17.5 15.4 14.8 84 1.6 NNW 19 22 10 12 1013.9 1013.9 0.0
20/06:00am 16.7 14.9 14.5 87 1.3 NNW 17 24 9 13 1013.6 1013.6 0.0
20/05:30am 16.9 15.1 14.5 86 1.4 NNW 17 22 9 12 1013.3 1013.3 0.0
20/05:00am 16.8 15.2 15.0 89 1.0 NW 17 20 9 11 1012.9 1012.9 0.0
20/04:30am 16.2 14.8 14.6 90 0.9 NNW 15 20 8 11 1012.6 1012.6 0.0
20/04:00am 15.9 14.6 14.8 93 0.6 N 15 20 8 11 1012.3 1012.3 0.0
20/03:30am 15.1 15.6 14.0 93 0.6 NNW 4 11 2 6 1012.9 1012.9 0.0
20/03:00am 15.0 14.1 13.7 92 0.7 NNW 11 13 6 7 1012.7 1012.7 0.0
20/02:30am 15.7 14.9 14.1 90 0.9 NNW 11 15 6 8 1012.5 1012.5 0.0
20/02:00am 15.2 14.4 13.9 92 0.7 N 11 13 6 7 1013.0 1013.0 0.0
20/01:30am 15.7 14.5 14.1 90 0.9 NNW 13 17 7 9 1013.1 1013.1 0.0
20/01:00am 16.1 14.9 14.1 88 1.1 NNW 13 17 7 9 1013.5 1013.5 0.0
20/12:30am 16.3 14.8 14.1 87 1.2 NNW 15 19 8 10 1013.7 1013.7 0.0
20/12:00am 15.8 14.4 13.5 86 1.3 NNW 13 17 7 9 1014.0 1014.0 0.0
 
Date/Time
EST
Temp
°C
App
Temp
°C
Dew
Point
°C
Rel
Hum
%
Delta-T
°C
Wind Press
QNH
hPa
Press
MSL
hPa
Rain since
9am
mm
Dir  Spd
km/h
Gust
km/h
Spd
kts
Gust
kts
19/11:30pm 16.2 14.8 13.5 84 1.5 N 13 17 7 9 1014.2 1014.2 0.0

Other Formats:

Comma delimited format used in spreadsheet applications
http://www.bom.gov.au/fwo/IDQ60801/IDQ60801.94569.axf

JavaScript Object Notation format (JSON) in row-major order
http://www.bom.gov.au/fwo/IDQ60801/IDQ60801.94569.json